Time;durP1;ratioP1;P1;durP2;ratioP2;P2;SDS_P1;SDS_P2;PMS_P1;PMS_P2;Temp;Humidity;BMP_temperature;BMP_pressure;BME280_temperature;BME280_humidity;BME280_pressure;Samples;Min_cycle;Max_cycle;Signal;HPM_P1;HPM_P2
2021/10/21 00:01:48;;;;;;;1.10;1.10;;;13.80;76.30;;;;;;4946505;28;20210;-72
2021/10/21 00:04:15;;;;;;;2.47;1.80;;;13.90;76.30;;;;;;4944828;28;20558;-72
2021/10/21 00:06:42;;;;;;;0.80;0.80;;;14.00;76.30;;;;;;4974820;28;20222;-72
2021/10/21 00:09:09;;;;;;;2.73;0.93;;;14.00;76.30;;;;;;4942320;28;20244;-72
2021/10/21 00:11:37;;;;;;;1.10;1.10;;;14.10;76.40;;;;;;4944712;29;20237;-72
2021/10/21 00:14:08;;;;;;;0.97;0.97;;;14.10;76.40;;;;;;4961115;28;20225;-72
2021/10/21 00:16:35;;;;;;;2.03;1.33;;;14.10;76.40;;;;;;4945989;29;20239;-72
2021/10/21 00:19:03;;;;;;;1.10;0.80;;;14.10;76.20;;;;;;4945709;28;20214;-72
2021/10/21 00:21:30;;;;;;;1.13;0.93;;;14.20;76.10;;;;;;4947701;28;20221;-72
2021/10/21 00:23:57;;;;;;;0.47;0.47;;;14.30;76.00;;;;;;4975400;28;20224;-72
2021/10/21 00:26:24;;;;;;;0.33;0.33;;;14.30;75.90;;;;;;4953259;29;20540;-72
2021/10/21 00:28:51;;;;;;;0.10;0.10;;;14.40;75.70;;;;;;4943862;28;20265;-72
2021/10/21 00:31:19;;;;;;;0.77;0.73;;;14.50;75.70;;;;;;4945526;28;20222;-72
2021/10/21 00:33:46;;;;;;;2.03;1.87;;;14.50;75.60;;;;;;4977236;28;20237;-72
2021/10/21 00:36:14;;;;;;;0.53;0.53;;;14.50;75.40;;;;;;4944366;28;20222;-72
2021/10/21 00:38:41;;;;;;;0.50;0.50;;;14.60;75.40;;;;;;4973233;28;20223;-72
2021/10/21 00:41:08;;;;;;;2.47;0.70;;;14.70;75.30;;;;;;4946928;29;20233;-72
2021/10/21 00:43:39;;;;;;;0.80;0.57;;;14.80;75.20;;;;;;4949649;28;20201;-72
2021/10/21 00:46:08;;;;;;;0.30;0.30;;;14.80;75.20;;;;;;4945226;29;20214;-72
2021/10/21 00:48:37;;;;;;;1.03;0.73;;;14.90;75.20;;;;;;4946747;28;20230;-72
2021/10/21 00:51:08;;;;;;;0.97;0.93;;;15.00;75.20;;;;;;4953692;29;20220;-73
2021/10/21 00:53:35;;;;;;;0.60;0.60;;;15.00;75.30;;;;;;4941850;28;20525;-72
2021/10/21 00:56:04;;;;;;;0.20;0.20;;;15.10;75.40;;;;;;4948110;28;20567;-72
2021/10/21 00:58:33;;;;;;;0.20;0.20;;;15.20;75.40;;;;;;4945987;28;20234;-72
2021/10/21 01:01:01;;;;;;;0.37;0.37;;;15.20;75.30;;;;;;4945835;29;20213;-73
2021/10/21 01:03:28;;;;;;;0.83;0.83;;;15.30;75.60;;;;;;4944458;29;20246;-72
2021/10/21 01:05:55;;;;;;;1.20;0.67;;;15.30;75.50;;;;;;4942689;29;20655;-73
2021/10/21 01:08:23;;;;;;;0.10;0.10;;;15.40;75.40;;;;;;4965688;28;20678;-72
2021/10/21 01:10:51;;;;;;;0.20;0.20;;;15.50;75.10;;;;;;4946240;28;20217;-72
2021/10/21 01:13:18;;;;;;;0.50;0.50;;;15.40;74.60;;;;;;4944680;29;20230;-73
2021/10/21 01:15:45;;;;;;;0.50;0.50;;;15.40;74.60;;;;;;4945117;28;20236;-72
2021/10/21 01:18:12;;;;;;;0.27;0.27;;;15.30;74.70;;;;;;4946819;29;20308;-72
2021/10/21 01:20:39;;;;;;;0.23;0.23;;;15.30;74.80;;;;;;4944408;28;20218;-72
2021/10/21 01:23:06;;;;;;;0.10;0.10;;;15.20;74.80;;;;;;4948595;28;20220;-72
2021/10/21 01:25:33;;;;;;;0.10;0.10;;;15.30;75.00;;;;;;4942965;29;20722;-72
2021/10/21 01:28:04;;;;;;;0.30;0.30;;;15.20;75.00;;;;;;4942255;28;20242;-73
2021/10/21 01:30:31;;;;;;;1.60;1.50;;;15.20;75.10;;;;;;4942635;29;20459;-72
2021/10/21 01:32:58;;;;;;;0.30;0.30;;;15.20;75.10;;;;;;4944873;29;20217;-73
2021/10/21 01:35:26;;;;;;;0.37;0.37;;;15.20;75.10;;;;;;4942791;28;20222;-73
2021/10/21 01:37:53;;;;;;;0.10;0.10;;;15.30;75.10;;;;;;4945626;28;20304;-72
2021/10/21 01:40:21;;;;;;;0.37;0.37;;;15.30;75.20;;;;;;4945996;29;20218;-72
2021/10/21 01:42:48;;;;;;;0.20;0.20;;;15.40;75.10;;;;;;4947095;29;20622;-72
2021/10/21 01:45:20;;;;;;;0.73;0.37;;;15.50;75.00;;;;;;4948560;28;20206;-72
2021/10/21 01:47:48;;;;;;;0.17;0.17;;;15.60;74.90;;;;;;4948500;29;20214;-72
2021/10/21 01:50:17;;;;;;;0.10;0.10;;;15.60;74.70;;;;;;4950057;28;20675;-72
2021/10/21 01:52:44;;;;;;;0.30;0.30;;;15.70;74.60;;;;;;4953388;29;20576;-72
2021/10/21 01:55:12;;;;;;;0.70;0.70;;;15.80;74.60;;;;;;4950028;28;20642;-72
2021/10/21 01:57:40;;;;;;;0.20;0.20;;;15.80;74.40;;;;;;4982758;28;20249;-72
2021/10/21 02:00:09;;;;;;;0.10;0.10;;;15.90;74.40;;;;;;4952063;28;20240;-72
2021/10/21 02:02:36;;;;;;;0.30;0.30;;;15.90;74.30;;;;;;4951598;29;20210;-72
2021/10/21 02:05:05;;;;;;;0.40;0.40;;;16.00;74.20;;;;;;4957749;29;20221;-72
2021/10/21 02:07:33;;;;;;;0.27;0.27;;;16.10;74.20;;;;;;4954057;28;20332;-72
2021/10/21 02:10:00;;;;;;;0.10;0.10;;;16.10;74.20;;;;;;4957372;29;20229;-73
2021/10/21 02:12:27;;;;;;;0.10;0.10;;;16.10;74.20;;;;;;4951769;28;20217;-72
2021/10/21 02:14:54;;;;;;;0.10;0.10;;;16.10;74.30;;;;;;4962561;28;20218;-72
2021/10/21 02:17:22;;;;;;;0.10;0.10;;;16.20;74.40;;;;;;4951996;28;20234;-72
2021/10/21 02:19:50;;;;;;;0.20;0.20;;;16.20;74.30;;;;;;4948844;29;20278;-72
2021/10/21 02:22:17;;;;;;;0.20;0.20;;;16.30;74.10;;;;;;4947808;29;20244;-73
2021/10/21 02:24:44;;;;;;;0.20;0.20;;;16.30;73.90;;;;;;4950042;29;20229;-72
2021/10/21 02:27:11;;;;;;;0.10;0.10;;;16.30;73.70;;;;;;4961195;28;20313;-73
2021/10/21 02:29:38;;;;;;;0.20;0.20;;;16.40;73.60;;;;;;4946980;29;20226;-72
2021/10/21 02:32:06;;;;;;;0.40;0.40;;;16.40;73.60;;;;;;4948922;29;20698;-72
2021/10/21 02:34:33;;;;;;;0.37;0.37;;;16.40;73.60;;;;;;4946728;29;20289;-72
2021/10/21 02:37:00;;;;;;;1.10;1.00;;;16.40;73.50;;;;;;4948141;28;20285;-72
2021/10/21 02:39:27;;;;;;;12.87;1.77;;;16.40;73.50;;;;;;4950677;28;20237;-72
2021/10/21 02:41:54;;;;;;;0.30;0.30;;;16.40;73.50;;;;;;4946926;28;20686;-73
2021/10/21 02:44:21;;;;;;;0.10;0.10;;;16.40;73.40;;;;;;4949790;29;20214;-72
2021/10/21 02:46:49;;;;;;;0.10;0.10;;;16.50;73.40;;;;;;4945794;28;20229;-72
2021/10/21 02:49:17;;;;;;;0.30;0.30;;;16.50;73.40;;;;;;4949406;28;20228;-72
2021/10/21 02:51:45;;;;;;;0.40;0.40;;;16.50;73.30;;;;;;4949359;29;20210;-72
2021/10/21 02:54:12;;;;;;;1.97;0.17;;;16.60;73.30;;;;;;4947698;29;20210;-72
2021/10/21 02:56:39;;;;;;;0.40;0.40;;;16.60;73.10;;;;;;4946922;28;20218;-72
2021/10/21 02:59:06;;;;;;;0.53;0.53;;;16.60;73.00;;;;;;4959879;28;20220;-72
2021/10/21 03:01:33;;;;;;;0.20;0.20;;;16.60;72.90;;;;;;4945557;28;20222;-72
2021/10/21 03:04:00;;;;;;;0.43;0.43;;;16.60;72.80;;;;;;4980570;28;20575;-72
2021/10/21 03:06:27;;;;;;;0.10;0.10;;;16.60;72.80;;;;;;4946317;29;20276;-72
2021/10/21 03:08:54;;;;;;;0.90;0.70;;;16.60;72.80;;;;;;4954713;28;20693;-72
2021/10/21 03:11:21;;;;;;;0.47;0.33;;;16.60;72.80;;;;;;4947002;29;20233;-72
2021/10/21 03:13:48;;;;;;;0.10;0.10;;;16.60;72.80;;;;;;4947725;28;20626;-72
2021/10/21 03:16:15;;;;;;;0.20;0.20;;;16.60;73.40;;;;;;4948452;29;20226;-72
2021/10/21 03:18:43;;;;;;;0.10;0.10;;;16.60;73.40;;;;;;4947318;29;20305;-72
2021/10/21 03:21:10;;;;;;;0.20;0.20;;;16.60;72.80;;;;;;4949212;29;20276;-72
2021/10/21 03:23:37;;;;;;;0.50;0.50;;;16.70;72.90;;;;;;4952309;29;20681;-72
2021/10/21 03:26:04;;;;;;;0.00;0.00;;;16.70;73.00;;;;;;4949000;28;20285;-72
2021/10/21 03:28:31;;;;;;;0.40;0.40;;;16.70;73.00;;;;;;4942632;28;20260;-72
2021/10/21 03:30:58;;;;;;;0.00;0.00;;;16.70;72.90;;;;;;4946499;29;20219;-72
2021/10/21 03:33:25;;;;;;;0.20;0.20;;;16.80;72.90;;;;;;4947539;29;20215;-72
2021/10/21 03:35:52;;;;;;;0.20;0.20;;;16.80;72.90;;;;;;4946062;28;20219;-72
2021/10/21 03:38:19;;;;;;;0.30;0.30;;;16.80;72.90;;;;;;4952595;28;20257;-72
2021/10/21 03:40:46;;;;;;;0.20;0.20;;;16.80;72.90;;;;;;4947481;29;20214;-72
2021/10/21 03:43:14;;;;;;;0.20;0.20;;;16.80;72.90;;;;;;4944889;29;20226;-72
2021/10/21 03:45:42;;;;;;;0.10;0.10;;;16.80;73.10;;;;;;4947424;28;20594;-72
2021/10/21 03:48:10;;;;;;;0.10;0.10;;;16.90;73.20;;;;;;4946839;29;20218;-72
2021/10/21 03:50:37;;;;;;;0.10;0.10;;;16.90;73.20;;;;;;4954639;28;20706;-72
2021/10/21 03:53:09;;;;;;;0.10;0.10;;;16.90;73.20;;;;;;4948860;28;20225;-72
2021/10/21 03:55:40;;;;;;;0.07;0.07;;;17.00;73.30;;;;;;4944831;28;20301;-72
2021/10/21 03:58:08;;;;;;;0.30;0.30;;;17.10;73.50;;;;;;4954167;28;20692;-72
2021/10/21 04:00:35;;;;;;;0.57;0.57;;;17.10;73.40;;;;;;4945063;29;20221;-73
2021/10/21 04:03:03;;;;;;;0.50;0.50;;;17.20;73.30;;;;;;4946511;28;20222;-72
2021/10/21 04:05:30;;;;;;;0.13;0.13;;;17.30;73.30;;;;;;4946733;29;20560;-72
2021/10/21 04:07:57;;;;;;;0.20;0.20;;;17.40;73.20;;;;;;4946878;28;20249;-73
2021/10/21 04:10:24;;;;;;;1.70;0.40;;;17.40;73.10;;;;;;4950038;28;20218;-73
2021/10/21 04:12:51;;;;;;;0.10;0.10;;;17.50;73.10;;;;;;4942967;28;20226;-72
2021/10/21 04:15:18;;;;;;;1.23;0.70;;;17.50;73.00;;;;;;4947168;29;20210;-72
2021/10/21 04:17:45;;;;;;;0.10;0.10;;;17.60;73.00;;;;;;4944498;29;20249;-73
2021/10/21 04:20:12;;;;;;;0.40;0.40;;;17.60;72.80;;;;;;4948121;28;20226;-72
2021/10/21 04:22:39;;;;;;;0.23;0.23;;;17.70;72.80;;;;;;4952278;29;20635;-72
2021/10/21 04:25:07;;;;;;;0.10;0.10;;;17.70;72.70;;;;;;4978050;28;20220;-72
2021/10/21 04:27:34;;;;;;;0.10;0.10;;;17.70;72.60;;;;;;4946791;28;20288;-72
2021/10/21 04:30:01;;;;;;;0.10;0.10;;;17.70;72.50;;;;;;4971269;28;20303;-72
2021/10/21 04:32:28;;;;;;;0.10;0.10;;;17.70;72.40;;;;;;4947122;28;20213;-72
2021/10/21 04:34:55;;;;;;;0.10;0.10;;;17.70;72.30;;;;;;4944207;29;20544;-72
2021/10/21 04:37:22;;;;;;;0.50;0.50;;;17.70;72.30;;;;;;4955522;28;20646;-72
2021/10/21 04:39:49;;;;;;;0.10;0.10;;;17.80;72.30;;;;;;4945798;29;20213;-72
2021/10/21 04:42:16;;;;;;;0.10;0.10;;;17.80;72.30;;;;;;4945343;29;20218;-72
2021/10/21 04:44:44;;;;;;;0.20;0.20;;;17.80;72.20;;;;;;4951797;28;20230;-72
2021/10/21 04:47:11;;;;;;;0.93;0.40;;;17.80;72.10;;;;;;4947936;29;20217;-72
2021/10/21 04:49:38;;;;;;;0.30;0.30;;;17.80;71.90;;;;;;4947785;29;20214;-72
2021/10/21 04:52:05;;;;;;;0.40;0.40;;;17.90;71.90;;;;;;4947919;28;20225;-72
2021/10/21 04:54:32;;;;;;;0.10;0.10;;;17.90;71.90;;;;;;4957682;28;20287;-72
2021/10/21 04:56:59;;;;;;;0.10;0.10;;;17.90;71.90;;;;;;4945243;29;20214;-72
2021/10/21 04:59:26;;;;;;;0.10;0.10;;;17.90;71.80;;;;;;4953391;28;20234;-72
2021/10/21 05:01:53;;;;;;;0.37;0.37;;;17.90;71.70;;;;;;4959632;28;20663;-72
2021/10/21 05:04:20;;;;;;;0.73;0.50;;;17.90;71.70;;;;;;4972288;28;20211;-72
2021/10/21 05:06:47;;;;;;;0.60;0.60;;;17.90;71.70;;;;;;4946967;29;20218;-72
2021/10/21 05:09:15;;;;;;;0.10;0.10;;;17.90;71.70;;;;;;4944003;29;20229;-72
2021/10/21 05:11:42;;;;;;;0.30;0.30;;;17.90;71.70;;;;;;4946256;28;20563;-72
2021/10/21 05:14:09;;;;;;;0.10;0.10;;;17.90;71.60;;;;;;4960082;28;20218;-72
2021/10/21 05:16:36;;;;;;;0.10;0.10;;;18.00;71.60;;;;;;4944809;28;20232;-72
2021/10/21 05:19:03;;;;;;;0.10;0.10;;;17.90;71.50;;;;;;4946132;28;20321;-72
2021/10/21 05:21:30;;;;;;;0.10;0.10;;;17.90;71.50;;;;;;4944152;28;20313;-72
2021/10/21 05:23:57;;;;;;;0.10;0.10;;;17.90;71.40;;;;;;4946821;28;20859;-72
2021/10/21 05:26:24;;;;;;;0.20;0.20;;;17.90;71.40;;;;;;4961508;28;20272;-72
2021/10/21 05:28:51;;;;;;;0.10;0.10;;;17.90;71.50;;;;;;4940542;28;20309;-72
2021/10/21 05:31:18;;;;;;;0.17;0.17;;;17.90;71.50;;;;;;4945741;28;20225;-72
2021/10/21 05:33:46;;;;;;;0.10;0.10;;;17.90;71.50;;;;;;4974276;28;20228;-72
2021/10/21 05:36:14;;;;;;;0.77;0.77;;;17.90;71.60;;;;;;4944440;29;20289;-73
2021/10/21 05:38:41;;;;;;;0.20;0.20;;;17.90;71.60;;;;;;4975885;28;20249;-72
2021/10/21 05:41:08;;;;;;;1.17;0.77;;;17.90;71.60;;;;;;4946185;29;20222;-72
2021/10/21 05:43:35;;;;;;;0.10;0.10;;;17.80;71.60;;;;;;4944917;28;20281;-72
2021/10/21 05:46:02;;;;;;;0.17;0.17;;;17.80;71.70;;;;;;4951477;29;20237;-72
2021/10/21 05:48:30;;;;;;;0.20;0.20;;;17.80;71.80;;;;;;4976978;28;20217;-72
2021/10/21 05:50:57;;;;;;;0.10;0.10;;;17.70;71.80;;;;;;4946319;29;20221;-72
2021/10/21 05:53:24;;;;;;;0.30;0.30;;;17.70;71.90;;;;;;4945685;29;20277;-72
2021/10/21 05:55:51;;;;;;;0.30;0.30;;;17.70;71.90;;;;;;4975610;28;20614;-73
2021/10/21 05:58:18;;;;;;;0.30;0.30;;;17.70;72.00;;;;;;4974524;28;20240;-73
2021/10/21 06:00:46;;;;;;;0.20;0.20;;;17.60;72.10;;;;;;4943269;29;20225;-73
2021/10/21 06:03:13;;;;;;;0.10;0.10;;;17.60;72.20;;;;;;4943452;28;20218;-72
2021/10/21 06:05:40;;;;;;;0.10;0.10;;;17.50;72.20;;;;;;4976821;28;20481;-72
2021/10/21 06:08:07;;;;;;;0.10;0.10;;;17.50;72.30;;;;;;4975570;28;20234;-72
2021/10/21 06:10:34;;;;;;;0.20;0.20;;;17.50;72.40;;;;;;4951549;28;20628;-73
2021/10/21 06:13:01;;;;;;;0.20;0.20;;;17.50;72.50;;;;;;4949696;28;20222;-72
2021/10/21 06:15:29;;;;;;;0.10;0.10;;;17.50;72.50;;;;;;4945181;29;20285;-73
2021/10/21 06:17:56;;;;;;;0.00;0.00;;;17.50;72.60;;;;;;4944445;28;20235;-72
2021/10/21 06:20:24;;;;;;;0.43;0.43;;;17.50;72.70;;;;;;4944557;29;20215;-72
2021/10/21 06:22:51;;;;;;;0.10;0.10;;;17.50;72.70;;;;;;4954721;28;20225;-72
2021/10/21 06:25:18;;;;;;;0.10;0.10;;;17.60;72.60;;;;;;4944197;29;20298;-72
2021/10/21 06:27:45;;;;;;;0.47;0.47;;;17.60;72.50;;;;;;4945187;28;20304;-72
2021/10/21 06:30:12;;;;;;;0.10;0.10;;;17.60;73.00;;;;;;4941776;28;20214;-72
2021/10/21 06:32:39;;;;;;;0.10;0.10;;;17.70;72.40;;;;;;4944443;28;20218;-73
2021/10/21 06:35:08;;;;;;;0.30;0.30;;;17.60;72.30;;;;;;4946368;29;20269;-73
2021/10/21 06:37:35;;;;;;;0.50;0.50;;;17.70;72.40;;;;;;4946360;28;20246;-72
2021/10/21 06:40:03;;;;;;;0.00;0.00;;;17.70;72.50;;;;;;4981805;28;20310;-72
2021/10/21 06:42:34;;;;;;;0.27;0.27;;;17.70;72.50;;;;;;4946564;29;20595;-73
2021/10/21 06:45:02;;;;;;;0.10;0.10;;;17.70;72.40;;;;;;4949563;29;20225;-72
2021/10/21 06:47:29;;;;;;;0.10;0.10;;;17.80;72.50;;;;;;4954030;28;20218;-72
2021/10/21 06:49:57;;;;;;;1.60;1.50;;;17.90;72.60;;;;;;4981127;28;20230;-73
2021/10/21 06:52:24;;;;;;;0.40;0.40;;;17.90;72.40;;;;;;4947388;28;20647;-73
2021/10/21 06:54:51;;;;;;;0.00;0.00;;;18.00;72.40;;;;;;4946625;28;20225;-73
2021/10/21 06:57:19;;;;;;;0.10;0.10;;;18.00;72.40;;;;;;4946996;29;20611;-73
2021/10/21 06:59:46;;;;;;;0.10;0.10;;;18.20;72.50;;;;;;4953137;28;20234;-71
2021/10/21 07:02:14;;;;;;;0.20;0.20;;;18.40;72.20;;;;;;4947396;29;20214;-73
2021/10/21 07:04:41;;;;;;;0.10;0.10;;;18.70;71.80;;;;;;4947077;28;20211;-73
2021/10/21 07:07:26;;;;;;;0.10;0.10;;;18.90;71.20;;;;;;4948703;29;20211;-73
2021/10/21 07:09:54;;;;;;;0.10;0.10;;;19.20;70.40;;;;;;4956068;28;20233;-73
2021/10/21 07:12:21;;;;;;;0.53;0.33;;;19.40;69.90;;;;;;4947007;28;20570;-71
2021/10/21 07:14:49;;;;;;;0.03;0.03;;;19.70;69.40;;;;;;4948835;29;20225;-71
2021/10/21 07:17:17;;;;;;;0.20;0.20;;;19.90;68.60;;;;;;4944568;28;20221;-71
2021/10/21 07:19:49;;;;;;;0.10;0.10;;;20.20;68.00;;;;;;4947408;29;20344;-72
2021/10/21 07:22:16;;;;;;;0.10;0.10;;;20.50;67.10;;;;;;4948349;28;20529;-71
2021/10/21 07:24:45;;;;;;;0.50;0.33;;;20.70;66.30;;;;;;4941986;28;20280;-74
2021/10/21 07:27:12;;;;;;;0.00;0.00;;;21.00;65.70;;;;;;4945502;28;20231;-73
2021/10/21 07:29:40;;;;;;;0.33;0.33;;;21.20;64.70;;;;;;4977070;28;20280;-71
2021/10/21 07:32:07;;;;;;;0.40;0.40;;;21.50;63.70;;;;;;4946554;29;20317;-73
2021/10/21 07:34:35;;;;;;;0.17;0.17;;;21.70;65.90;;;;;;4948835;28;20247;-72
2021/10/21 07:37:03;;;;;;;0.10;0.10;;;21.80;65.00;;;;;;4945311;29;20217;-74
2021/10/21 07:39:30;;;;;;;0.10;0.10;;;21.90;64.10;;;;;;4949332;29;20257;-71
2021/10/21 07:42:00;;;;;;;0.10;0.10;;;22.00;63.10;;;;;;4948702;29;20222;-72
2021/10/21 07:44:31;;;;;;;0.00;0.00;;;22.20;63.00;;;;;;4946104;28;20218;-71
2021/10/21 07:46:59;;;;;;;0.10;0.10;;;22.50;61.30;;;;;;4948091;28;20225;-73
2021/10/21 07:49:27;;;;;;;0.10;0.10;;;22.70;60.70;;;;;;4946269;29;20214;-74
2021/10/21 07:51:54;;;;;;;0.60;0.60;;;22.80;60.10;;;;;;4949165;28;20277;-72
2021/10/21 07:54:24;;;;;;;0.10;0.10;;;23.00;60.20;;;;;;4944694;28;20618;-72
2021/10/21 07:56:52;;;;;;;0.00;0.00;;;23.00;59.10;;;;;;4956240;28;20296;-72
2021/10/21 07:59:25;;;;;;;1.07;0.60;;;22.80;59.20;;;;;;4946469;29;20325;-73
2021/10/21 08:01:59;;;;;;;0.30;0.30;;;22.70;59.40;;;;;;4975931;28;20222;-71
2021/10/21 08:04:27;;;;;;;0.20;0.20;;;22.40;59.70;;;;;;4954901;28;20224;-71
2021/10/21 08:06:56;;;;;;;0.10;0.10;;;22.20;60.10;;;;;;4945335;29;20214;-71
2021/10/21 08:09:31;;;;;;;0.10;0.10;;;22.00;60.60;;;;;;4946523;29;20210;-71
2021/10/21 08:12:01;;;;;;;0.20;0.20;;;21.90;61.00;;;;;;4946602;28;20257;-72
2021/10/21 08:14:28;;;;;;;0.50;0.50;;;21.70;61.20;;;;;;4948579;29;20554;-71
2021/10/21 08:16:57;;;;;;;0.10;0.10;;;21.60;61.40;;;;;;4974728;28;20222;-71
2021/10/21 08:19:26;;;;;;;0.10;0.10;;;21.60;61.60;;;;;;4948639;28;20253;-72
2021/10/21 08:21:54;;;;;;;0.17;0.17;;;21.60;61.90;;;;;;4952826;28;20229;-74
2021/10/21 08:24:22;;;;;;;0.10;0.10;;;21.60;62.00;;;;;;4949412;28;20221;-73
2021/10/21 08:26:51;;;;;;;0.20;0.20;;;21.60;61.90;;;;;;4947946;28;20310;-71
2021/10/21 08:29:22;;;;;;;0.10;0.10;;;21.50;62.00;;;;;;4949247;28;20218;-71
2021/10/21 08:31:52;;;;;;;0.47;0.47;;;21.50;62.30;;;;;;4954578;28;20654;-72
2021/10/21 08:34:19;;;;;;;0.83;0.83;;;21.60;62.10;;;;;;4961469;28;20288;-74
2021/10/21 08:36:46;;;;;;;0.10;0.10;;;21.80;61.90;;;;;;4972880;28;20218;-72
2021/10/21 08:39:14;;;;;;;0.07;0.07;;;22.20;61.10;;;;;;4944997;28;20587;-72
2021/10/21 08:41:42;;;;;;;0.10;0.10;;;22.60;60.30;;;;;;4945893;29;20268;-72
2021/10/21 08:44:10;;;;;;;0.10;0.10;;;22.90;59.40;;;;;;4944188;28;20231;-73
2021/10/21 08:46:39;;;;;;;0.10;0.10;;;23.10;58.90;;;;;;4975027;28;20215;-73
2021/10/21 08:49:07;;;;;;;3.23;0.97;;;23.30;58.50;;;;;;4952707;28;20664;-73
2021/10/21 08:51:34;;;;;;;0.10;0.10;;;23.30;58.60;;;;;;4945101;29;20228;-74
2021/10/21 08:54:04;;;;;;;0.40;0.40;;;23.50;58.40;;;;;;4945693;28;20217;-72
2021/10/21 08:56:32;;;;;;;0.57;0.57;;;23.80;58.10;;;;;;4946722;28;20249;-72
2021/10/21 08:59:00;;;;;;;0.00;0.00;;;24.00;57.40;;;;;;4939901;28;20609;-71
2021/10/21 09:01:37;;;;;;;0.10;0.10;;;24.10;56.50;;;;;;4947767;28;20214;-74
2021/10/21 09:07:55;;;;;;;0.10;0.10;;;24.20;55.50;;;;;;4947723;28;20654;-72
2021/10/21 09:09:42;;;;;;;0.10;0.10;;;24.30;55.60;;;;;;4947858;28;20230;-70
2021/10/21 09:12:17;;;;;;;0.20;0.20;;;24.50;55.00;;;;;;4945347;28;20221;-71
2021/10/21 09:14:50;;;;;;;0.00;0.00;;;24.50;54.90;;;;;;4947727;29;20225;-71
2021/10/21 09:17:19;;;;;;;0.10;0.10;;;24.60;54.70;;;;;;4959346;28;20215;-71
2021/10/21 09:19:46;;;;;;;0.20;0.20;;;24.80;54.50;;;;;;4971927;28;20241;-72
2021/10/21 09:22:23;;;;;;;0.17;0.17;;;24.80;54.30;;;;;;4943099;29;20582;-71
2021/10/21 09:24:51;;;;;;;0.30;0.30;;;24.80;53.80;;;;;;4974985;28;20214;-71
2021/10/21 09:27:20;;;;;;;0.00;0.00;;;24.80;53.80;;;;;;4946364;28;20253;-71
2021/10/21 09:29:49;;;;;;;0.00;0.00;;;24.80;53.90;;;;;;4949065;29;20297;-71
2021/10/21 09:32:23;;;;;;;0.00;0.00;;;24.80;54.00;;;;;;4944553;28;20226;-74
2021/10/21 09:35:01;;;;;;;0.73;0.30;;;24.80;54.10;;;;;;4945297;28;20285;-72
2021/10/21 09:37:42;;;;;;;0.20;0.20;;;24.80;54.20;;;;;;4944418;28;20225;-72
2021/10/21 09:40:10;;;;;;;0.00;0.00;;;24.80;54.10;;;;;;4947492;28;20241;-72
2021/10/21 09:42:43;;;;;;;0.10;0.10;;;25.20;53.80;;;;;;4946384;28;20639;-71
2021/10/21 09:45:19;;;;;;;0.00;0.00;;;25.40;52.90;;;;;;4943357;29;20317;-71
2021/10/21 09:47:52;;;;;;;0.10;0.10;;;25.70;52.00;;;;;;4958674;28;20738;-71
2021/10/21 09:50:32;;;;;;;0.10;0.10;;;25.80;50.50;;;;;;4948153;28;20206;-71
2021/10/21 09:53:20;;;;;;;0.00;0.00;;;26.00;50.50;;;;;;4943630;28;20214;-73
2021/10/21 09:56:13;;;;;;;0.03;0.03;;;26.20;50.20;;;;;;4943071;29;20277;-72
2021/10/21 09:58:41;;;;;;;0.00;0.00;;;26.30;50.40;;;;;;4943151;28;20226;-72
2021/10/21 10:01:16;;;;;;;0.10;0.10;;;26.30;50.40;;;;;;4940119;28;20245;-72
2021/10/21 10:03:45;;;;;;;0.10;0.10;;;26.20;50.10;;;;;;4945139;29;20225;-72
2021/10/21 10:06:18;;;;;;;0.10;0.10;;;26.10;49.20;;;;;;4950209;29;20333;-71
2021/10/21 10:08:46;;;;;;;0.10;0.10;;;25.90;49.80;;;;;;4977320;28;20214;-72
2021/10/21 10:11:20;;;;;;;0.40;0.40;;;26.10;50.20;;;;;;4943542;29;20207;-72
2021/10/21 10:13:51;;;;;;;0.00;0.00;;;26.50;49.90;;;;;;4948233;28;20217;-72
2021/10/21 10:16:18;;;;;;;0.00;0.00;;;26.90;49.10;;;;;;4948606;29;20213;-72
2021/10/21 10:18:46;;;;;;;0.10;0.10;;;27.20;48.70;;;;;;4956694;29;20228;-71
2021/10/21 10:21:16;;;;;;;0.10;0.10;;;27.50;48.40;;;;;;4943493;28;20295;-72
2021/10/21 10:24:02;;;;;;;0.67;0.27;;;27.40;47.90;;;;;;4947362;29;20210;-72
2021/10/21 10:26:48;;;;;;;0.20;0.20;;;27.10;48.10;;;;;;4955635;28;20209;-71
2021/10/21 10:29:40;;;;;;;0.10;0.10;;;26.80;48.40;;;;;;4942697;28;20225;-71
2021/10/21 10:32:31;;;;;;;0.00;0.00;;;26.70;48.70;;;;;;4948932;29;20218;-72
2021/10/21 10:35:00;;;;;;;0.10;0.10;;;26.60;48.60;;;;;;4949057;29;20232;-71
2021/10/21 10:37:27;;;;;;;0.00;0.00;;;26.40;48.90;;;;;;4948200;28;20217;-72
2021/10/21 10:40:02;;;;;;;0.00;0.00;;;26.20;49.00;;;;;;4942346;29;20270;-72
2021/10/21 10:42:29;;;;;;;0.20;0.20;;;26.00;49.40;;;;;;4946902;28;20613;-72
2021/10/21 10:44:59;;;;;;;0.00;0.00;;;25.80;49.80;;;;;;4948698;29;20221;-71
2021/10/21 10:47:45;;;;;;;0.20;0.20;;;25.60;49.90;;;;;;4945558;28;20221;-71
2021/10/21 10:50:16;;;;;;;0.00;0.00;;;25.40;50.20;;;;;;4947655;29;20281;-71
2021/10/21 10:52:59;;;;;;;0.10;0.10;;;25.30;50.40;;;;;;4943647;28;20214;-72
2021/10/21 10:55:44;;;;;;;0.00;0.00;;;25.60;50.10;;;;;;4945839;28;20226;-71
2021/10/21 10:58:16;;;;;;;0.20;0.20;;;26.10;49.00;;;;;;4944490;28;20293;-71
2021/10/21 11:00:51;;;;;;;0.10;0.10;;;26.60;48.20;;;;;;4950940;28;20245;-72
2021/10/21 11:03:38;;;;;;;0.13;0.13;;;27.00;47.60;;;;;;4962037;28;20214;-71
2021/10/21 11:06:10;;;;;;;0.10;0.10;;;27.50;46.80;;;;;;4950101;28;20213;-71
2021/10/21 11:08:50;;;;;;;0.17;0.17;;;27.70;46.10;;;;;;4947430;28;20230;-72
2021/10/21 11:11:52;;;;;;;0.10;0.10;;;27.60;45.70;;;;;;4953141;29;20221;-71
2021/10/21 11:14:31;;;;;;;0.00;0.00;;;27.50;46.20;;;;;;4946807;29;20249;-71
2021/10/21 11:16:58;;;;;;;9.23;0.87;;;27.30;46.60;;;;;;4946779;28;20214;-71
2021/10/21 11:19:44;;;;;;;1.70;0.70;;;27.10;46.60;;;;;;4950706;29;20245;-71
2021/10/21 11:22:18;;;;;;;3.03;2.33;;;26.90;47.50;;;;;;4950123;28;20280;-71
2021/10/21 11:24:47;;;;;;;3.90;2.07;;;26.60;48.30;;;;;;4945852;29;20309;-71
2021/10/21 11:27:16;;;;;;;2.83;2.50;;;26.40;49.30;;;;;;4945332;28;20246;-71
2021/10/21 11:29:44;;;;;;;3.73;1.53;;;26.20;50.00;;;;;;4945772;28;20233;-71
2021/10/21 11:32:11;;;;;;;3.83;2.93;;;25.90;50.60;;;;;;4951693;29;20218;-71
2021/10/21 11:34:38;;;;;;;2.93;2.60;;;25.80;51.60;;;;;;4948394;28;20217;-72
2021/10/21 11:37:05;;;;;;;5.30;3.23;;;25.50;52.30;;;;;;4952807;29;20624;-71
2021/10/21 11:39:40;;;;;;;4.53;3.90;;;25.10;52.80;;;;;;4949437;29;20253;-72
2021/10/21 11:42:09;;;;;;;2.40;1.97;;;24.90;53.90;;;;;;4946624;28;20281;-72
2021/10/21 11:44:38;;;;;;;3.80;3.27;;;24.90;54.20;;;;;;4947141;28;20210;-72
2021/10/21 11:47:07;;;;;;;4.63;2.50;;;24.90;54.20;;;;;;4975767;28;20635;-72
2021/10/21 11:49:37;;;;;;;2.40;2.20;;;25.00;53.90;;;;;;4949613;28;20597;-72
2021/10/21 11:52:10;;;;;;;3.90;3.60;;;24.80;53.90;;;;;;4947430;28;20222;-72
2021/10/21 11:54:38;;;;;;;2.43;2.33;;;24.60;54.70;;;;;;4954273;29;20214;-72
2021/10/21 11:57:06;;;;;;;1.77;1.53;;;24.30;54.60;;;;;;4947033;28;20226;-72
2021/10/21 11:59:36;;;;;;;3.43;2.87;;;24.00;55.40;;;;;;4945370;29;20332;-72
2021/10/21 12:02:13;;;;;;;5.10;2.47;;;23.90;56.10;;;;;;4945527;29;20606;-72
2021/10/21 12:04:46;;;;;;;6.57;3.40;;;23.70;56.80;;;;;;4946674;28;20218;-72
2021/10/21 12:07:13;;;;;;;4.50;3.77;;;23.60;56.90;;;;;;4948595;29;20222;-72
2021/10/21 12:09:41;;;;;;;3.73;2.87;;;23.40;57.60;;;;;;4951984;29;20225;-72
2021/10/21 12:12:12;;;;;;;3.87;3.60;;;23.30;57.90;;;;;;4944978;29;20222;-72
2021/10/21 12:14:47;;;;;;;3.10;2.90;;;23.10;58.50;;;;;;4947387;28;20213;-72
2021/10/21 12:17:14;;;;;;;6.40;3.93;;;23.00;59.20;;;;;;4948258;28;20221;-71
2021/10/21 12:19:51;;;;;;;2.57;2.37;;;22.90;59.50;;;;;;4975775;28;20245;-71
2021/10/21 12:22:24;;;;;;;7.37;4.53;;;22.80;59.80;;;;;;4946350;28;20292;-71
2021/10/21 12:24:51;;;;;;;3.03;2.83;;;22.70;60.00;;;;;;4947959;28;20268;-71
2021/10/21 12:27:21;;;;;;;6.80;5.47;;;22.70;60.10;;;;;;4944444;28;20671;-72
2021/10/21 12:29:49;;;;;;;4.80;4.10;;;22.60;60.20;;;;;;4979539;28;20233;-72
2021/10/21 12:32:19;;;;;;;4.37;3.37;;;22.50;60.80;;;;;;4942542;28;20229;-71
2021/10/21 12:34:47;;;;;;;3.83;3.00;;;22.40;60.80;;;;;;4942199;28;20218;-72
2021/10/21 12:37:24;;;;;;;4.67;4.10;;;22.30;61.20;;;;;;4947385;29;20218;-71
2021/10/21 12:39:52;;;;;;;8.40;4.97;;;22.30;61.40;;;;;;4945842;29;20238;-71
2021/10/21 12:42:24;;;;;;;4.07;3.00;;;22.10;61.60;;;;;;4946753;28;20213;-71
2021/10/21 12:44:59;;;;;;;6.63;3.37;;;22.00;62.00;;;;;;4947603;29;20218;-72
2021/10/21 12:47:31;;;;;;;3.67;3.33;;;21.70;62.60;;;;;;4942189;28;20562;-71
2021/10/21 12:50:04;;;;;;;5.17;4.43;;;21.50;63.30;;;;;;4946841;28;20643;-71
2021/10/21 12:52:37;;;;;;;3.77;3.37;;;21.30;63.90;;;;;;4947849;28;20297;-71
2021/10/21 12:55:16;;;;;;;5.47;4.77;;;21.10;64.70;;;;;;4943737;28;20230;-71
2021/10/21 12:57:51;;;;;;;4.97;4.63;;;21.00;64.60;;;;;;4945565;29;20222;-71
2021/10/21 13:00:30;;;;;;;2.63;2.47;;;21.00;64.80;;;;;;4950822;29;20237;-71
2021/10/21 13:03:13;;;;;;;8.00;5.40;;;21.00;65.00;;;;;;4944542;28;20274;-71